sensor_id;sensor_type;location;lat;lon;timestamp;P1;durP1;ratioP1;P2;durP2;ratioP2
19897;SDS011;10111;50.814;4.572;2023-02-13T00:01:24;48.03;;;21.43;;
19897;SDS011;10111;50.814;4.572;2023-02-13T00:03:50;47.67;;;23.40;;
19897;SDS011;10111;50.814;4.572;2023-02-13T00:06:16;44.13;;;21.37;;
19897;SDS011;10111;50.814;4.572;2023-02-13T00:08:41;41.40;;;20.90;;
19897;SDS011;10111;50.814;4.572;2023-02-13T00:11:07;46.70;;;21.27;;
19897;SDS011;10111;50.814;4.572;2023-02-13T00:13:33;40.17;;;22.07;;
19897;SDS011;10111;50.814;4.572;2023-02-13T00:16:00;50.70;;;22.67;;
19897;SDS011;10111;50.814;4.572;2023-02-13T00:18:27;55.07;;;23.10;;
19897;SDS011;10111;50.814;4.572;2023-02-13T00:21:00;44.67;;;22.17;;
19897;SDS011;10111;50.814;4.572;2023-02-13T00:23:28;45.90;;;21.13;;
19897;SDS011;10111;50.814;4.572;2023-02-13T00:25:55;44.87;;;21.57;;
19897;SDS011;10111;50.814;4.572;2023-02-13T00:28:21;38.63;;;19.50;;
19897;SDS011;10111;50.814;4.572;2023-02-13T00:30:47;46.13;;;21.63;;
19897;SDS011;10111;50.814;4.572;2023-02-13T00:33:13;58.13;;;22.87;;
19897;SDS011;10111;50.814;4.572;2023-02-13T00:35:38;61.90;;;23.07;;
19897;SDS011;10111;50.814;4.572;2023-02-13T00:38:04;42.93;;;20.27;;
19897;SDS011;10111;50.814;4.572;2023-02-13T00:40:30;43.37;;;20.83;;
19897;SDS011;10111;50.814;4.572;2023-02-13T00:42:55;51.93;;;22.47;;
19897;SDS011;10111;50.814;4.572;2023-02-13T00:45:21;40.33;;;19.07;;
19897;SDS011;10111;50.814;4.572;2023-02-13T00:47:47;43.93;;;19.80;;
19897;SDS011;10111;50.814;4.572;2023-02-13T00:50:12;44.17;;;21.47;;
19897;SDS011;10111;50.814;4.572;2023-02-13T00:52:38;36.50;;;18.77;;
19897;SDS011;10111;50.814;4.572;2023-02-13T00:55:03;53.40;;;16.97;;
19897;SDS011;10111;50.814;4.572;2023-02-13T00:57:29;32.67;;;16.20;;
19897;SDS011;10111;50.814;4.572;2023-02-13T00:59:56;51.97;;;18.17;;
19897;SDS011;10111;50.814;4.572;2023-02-13T01:02:22;57.00;;;21.00;;
19897;SDS011;10111;50.814;4.572;2023-02-13T01:04:48;58.40;;;19.30;;
19897;SDS011;10111;50.814;4.572;2023-02-13T01:07:13;66.33;;;20.80;;
19897;SDS011;10111;50.814;4.572;2023-02-13T01:09:39;49.33;;;18.80;;
19897;SDS011;10111;50.814;4.572;2023-02-13T01:12:05;59.00;;;17.60;;
19897;SDS011;10111;50.814;4.572;2023-02-13T01:14:31;55.40;;;20.37;;
19897;SDS011;10111;50.814;4.572;2023-02-13T01:16:56;42.43;;;16.47;;
19897;SDS011;10111;50.814;4.572;2023-02-13T01:19:22;45.67;;;18.73;;
19897;SDS011;10111;50.814;4.572;2023-02-13T01:21:48;59.13;;;19.73;;
19897;SDS011;10111;50.814;4.572;2023-02-13T01:24:13;55.43;;;21.03;;
19897;SDS011;10111;50.814;4.572;2023-02-13T01:26:39;58.60;;;20.13;;
19897;SDS011;10111;50.814;4.572;2023-02-13T01:29:05;52.83;;;20.60;;
19897;SDS011;10111;50.814;4.572;2023-02-13T01:31:31;49.13;;;18.33;;
19897;SDS011;10111;50.814;4.572;2023-02-13T01:33:57;58.57;;;21.47;;
19897;SDS011;10111;50.814;4.572;2023-02-13T01:36:23;48.13;;;18.37;;
19897;SDS011;10111;50.814;4.572;2023-02-13T01:38:54;65.20;;;19.43;;
19897;SDS011;10111;50.814;4.572;2023-02-13T01:41:21;48.90;;;19.67;;
19897;SDS011;10111;50.814;4.572;2023-02-13T01:43:52;52.03;;;18.00;;
19897;SDS011;10111;50.814;4.572;2023-02-13T01:46:26;65.63;;;21.60;;
19897;SDS011;10111;50.814;4.572;2023-02-13T01:48:53;51.47;;;19.93;;
19897;SDS011;10111;50.814;4.572;2023-02-13T01:51:24;60.67;;;20.20;;
19897;SDS011;10111;50.814;4.572;2023-02-13T01:54:05;52.03;;;18.43;;
19897;SDS011;10111;50.814;4.572;2023-02-13T01:56:37;45.03;;;18.40;;
19897;SDS011;10111;50.814;4.572;2023-02-13T01:59:17;53.60;;;20.80;;
19897;SDS011;10111;50.814;4.572;2023-02-13T02:01:46;38.50;;;18.87;;
19897;SDS011;10111;50.814;4.572;2023-02-13T02:04:14;51.43;;;17.50;;
19897;SDS011;10111;50.814;4.572;2023-02-13T02:06:45;45.70;;;18.77;;
19897;SDS011;10111;50.814;4.572;2023-02-13T02:09:17;56.73;;;19.17;;
19897;SDS011;10111;50.814;4.572;2023-02-13T02:11:51;47.87;;;18.00;;
19897;SDS011;10111;50.814;4.572;2023-02-13T02:14:21;57.27;;;17.20;;
19897;SDS011;10111;50.814;4.572;2023-02-13T02:16:46;43.40;;;19.33;;
19897;SDS011;10111;50.814;4.572;2023-02-13T02:19:24;59.87;;;18.37;;
19897;SDS011;10111;50.814;4.572;2023-02-13T02:25:03;47.77;;;18.13;;
19897;SDS011;10111;50.814;4.572;2023-02-13T02:36:09;48.97;;;18.63;;
19897;SDS011;10111;50.814;4.572;2023-02-13T02:41:21;53.17;;;18.30;;
19897;SDS011;10111;50.814;4.572;2023-02-13T02:47:13;45.27;;;20.03;;
19897;SDS011;10111;50.814;4.572;2023-02-13T02:57:43;32.90;;;17.03;;
19897;SDS011;10111;50.814;4.572;2023-02-13T03:00:30;32.23;;;15.77;;
19897;SDS011;10111;50.814;4.572;2023-02-13T03:03:18;37.03;;;16.10;;
19897;SDS011;10111;50.814;4.572;2023-02-13T03:06:11;32.93;;;15.43;;
19897;SDS011;10111;50.814;4.572;2023-02-13T03:08:45;37.47;;;15.40;;
19897;SDS011;10111;50.814;4.572;2023-02-13T03:11:38;23.37;;;13.73;;
19897;SDS011;10111;50.814;4.572;2023-02-13T03:14:26;26.13;;;13.77;;
19897;SDS011;10111;50.814;4.572;2023-02-13T03:16:52;37.70;;;14.60;;
19897;SDS011;10111;50.814;4.572;2023-02-13T03:31:07;27.97;;;14.27;;
19897;SDS011;10111;50.814;4.572;2023-02-13T03:36:37;24.00;;;13.80;;
19897;SDS011;10111;50.814;4.572;2023-02-13T03:39:40;21.60;;;12.93;;
19897;SDS011;10111;50.814;4.572;2023-02-13T03:42:31;26.93;;;13.80;;
19897;SDS011;10111;50.814;4.572;2023-02-13T03:45:02;19.70;;;12.40;;
19897;SDS011;10111;50.814;4.572;2023-02-13T03:47:55;24.23;;;12.67;;
19897;SDS011;10111;50.814;4.572;2023-02-13T03:50:23;19.43;;;13.37;;
19897;SDS011;10111;50.814;4.572;2023-02-13T03:55:34;21.10;;;12.13;;
19897;SDS011;10111;50.814;4.572;2023-02-13T03:58:23;22.57;;;12.60;;
19897;SDS011;10111;50.814;4.572;2023-02-13T04:01:13;23.37;;;14.40;;
19897;SDS011;10111;50.814;4.572;2023-02-13T04:03:44;23.47;;;14.17;;
19897;SDS011;10111;50.814;4.572;2023-02-13T04:06:33;25.73;;;13.97;;
19897;SDS011;10111;50.814;4.572;2023-02-13T04:09:07;24.90;;;13.80;;
19897;SDS011;10111;50.814;4.572;2023-02-13T04:11:35;33.77;;;17.00;;
19897;SDS011;10111;50.814;4.572;2023-02-13T04:14:09;25.73;;;15.37;;
19897;SDS011;10111;50.814;4.572;2023-02-13T04:16:44;22.27;;;14.87;;
19897;SDS011;10111;50.814;4.572;2023-02-13T04:19:16;22.60;;;15.03;;
19897;SDS011;10111;50.814;4.572;2023-02-13T04:21:42;21.50;;;13.47;;
19897;SDS011;10111;50.814;4.572;2023-02-13T04:24:08;28.53;;;14.90;;
19897;SDS011;10111;50.814;4.572;2023-02-13T04:26:35;28.70;;;13.40;;
19897;SDS011;10111;50.814;4.572;2023-02-13T04:29:03;22.10;;;13.73;;
19897;SDS011;10111;50.814;4.572;2023-02-13T04:31:29;28.40;;;16.60;;
19897;SDS011;10111;50.814;4.572;2023-02-13T04:33:55;28.93;;;14.97;;
19897;SDS011;10111;50.814;4.572;2023-02-13T04:36:20;31.50;;;14.30;;
19897;SDS011;10111;50.814;4.572;2023-02-13T04:38:46;20.73;;;12.83;;
19897;SDS011;10111;50.814;4.572;2023-02-13T04:41:12;24.83;;;13.50;;
19897;SDS011;10111;50.814;4.572;2023-02-13T04:43:38;26.33;;;15.60;;
19897;SDS011;10111;50.814;4.572;2023-02-13T04:46:03;20.97;;;13.10;;
19897;SDS011;10111;50.814;4.572;2023-02-13T04:48:29;23.33;;;12.83;;
19897;SDS011;10111;50.814;4.572;2023-02-13T04:50:55;31.03;;;14.63;;
19897;SDS011;10111;50.814;4.572;2023-02-13T04:53:21;21.70;;;14.20;;
19897;SDS011;10111;50.814;4.572;2023-02-13T04:55:47;26.43;;;14.03;;
19897;SDS011;10111;50.814;4.572;2023-02-13T04:58:13;21.83;;;14.00;;
19897;SDS011;10111;50.814;4.572;2023-02-13T05:00:38;26.23;;;14.63;;
19897;SDS011;10111;50.814;4.572;2023-02-13T05:03:05;24.00;;;15.00;;
19897;SDS011;10111;50.814;4.572;2023-02-13T05:05:32;22.83;;;12.80;;
19897;SDS011;10111;50.814;4.572;2023-02-13T05:07:58;21.00;;;12.40;;
19897;SDS011;10111;50.814;4.572;2023-02-13T05:10:24;23.37;;;14.13;;
19897;SDS011;10111;50.814;4.572;2023-02-13T05:12:49;23.93;;;13.93;;
19897;SDS011;10111;50.814;4.572;2023-02-13T05:15:15;23.13;;;13.67;;
19897;SDS011;10111;50.814;4.572;2023-02-13T05:17:44;24.97;;;14.50;;
19897;SDS011;10111;50.814;4.572;2023-02-13T05:20:11;20.70;;;13.73;;
19897;SDS011;10111;50.814;4.572;2023-02-13T05:22:44;22.27;;;13.40;;
19897;SDS011;10111;50.814;4.572;2023-02-13T05:25:29;28.57;;;14.77;;
19897;SDS011;10111;50.814;4.572;2023-02-13T05:27:55;21.47;;;13.63;;
19897;SDS011;10111;50.814;4.572;2023-02-13T05:30:21;29.03;;;14.03;;
19897;SDS011;10111;50.814;4.572;2023-02-13T05:32:47;24.57;;;14.30;;
19897;SDS011;10111;50.814;4.572;2023-02-13T05:35:14;25.83;;;14.10;;
19897;SDS011;10111;50.814;4.572;2023-02-13T05:37:40;25.20;;;12.80;;
19897;SDS011;10111;50.814;4.572;2023-02-13T05:40:06;21.00;;;13.70;;
19897;SDS011;10111;50.814;4.572;2023-02-13T05:42:33;26.33;;;14.67;;
19897;SDS011;10111;50.814;4.572;2023-02-13T05:44:58;27.30;;;14.53;;
19897;SDS011;10111;50.814;4.572;2023-02-13T05:47:24;23.77;;;12.90;;
19897;SDS011;10111;50.814;4.572;2023-02-13T05:49:49;30.73;;;14.63;;
19897;SDS011;10111;50.814;4.572;2023-02-13T05:52:15;22.47;;;13.70;;
19897;SDS011;10111;50.814;4.572;2023-02-13T05:54:41;20.37;;;13.13;;
19897;SDS011;10111;50.814;4.572;2023-02-13T05:57:06;20.23;;;13.13;;
19897;SDS011;10111;50.814;4.572;2023-02-13T05:59:32;21.20;;;12.90;;
19897;SDS011;10111;50.814;4.572;2023-02-13T06:01:58;18.30;;;12.60;;
19897;SDS011;10111;50.814;4.572;2023-02-13T06:04:23;21.47;;;13.13;;
19897;SDS011;10111;50.814;4.572;2023-02-13T06:06:49;21.33;;;12.67;;
19897;SDS011;10111;50.814;4.572;2023-02-13T06:09:15;17.47;;;11.50;;
19897;SDS011;10111;50.814;4.572;2023-02-13T06:11:40;20.10;;;13.03;;
19897;SDS011;10111;50.814;4.572;2023-02-13T06:14:06;23.07;;;13.27;;
19897;SDS011;10111;50.814;4.572;2023-02-13T06:16:32;16.70;;;11.53;;
19897;SDS011;10111;50.814;4.572;2023-02-13T06:18:58;19.33;;;11.80;;
19897;SDS011;10111;50.814;4.572;2023-02-13T06:21:24;19.47;;;11.73;;
19897;SDS011;10111;50.814;4.572;2023-02-13T06:23:50;20.73;;;12.73;;
19897;SDS011;10111;50.814;4.572;2023-02-13T06:26:16;18.87;;;11.70;;
19897;SDS011;10111;50.814;4.572;2023-02-13T06:28:42;22.30;;;12.50;;
19897;SDS011;10111;50.814;4.572;2023-02-13T06:31:08;17.10;;;11.90;;
19897;SDS011;10111;50.814;4.572;2023-02-13T06:33:34;15.27;;;10.73;;
19897;SDS011;10111;50.814;4.572;2023-02-13T06:35:59;22.93;;;13.07;;
19897;SDS011;10111;50.814;4.572;2023-02-13T06:38:25;17.13;;;12.47;;
19897;SDS011;10111;50.814;4.572;2023-02-13T06:40:51;18.97;;;12.63;;
19897;SDS011;10111;50.814;4.572;2023-02-13T06:43:16;18.00;;;12.33;;
19897;SDS011;10111;50.814;4.572;2023-02-13T06:45:43;21.90;;;12.63;;
19897;SDS011;10111;50.814;4.572;2023-02-13T06:48:10;21.37;;;12.67;;
19897;SDS011;10111;50.814;4.572;2023-02-13T06:50:36;21.83;;;12.17;;
19897;SDS011;10111;50.814;4.572;2023-02-13T06:53:02;18.37;;;12.23;;
19897;SDS011;10111;50.814;4.572;2023-02-13T06:55:28;21.43;;;11.30;;
19897;SDS011;10111;50.814;4.572;2023-02-13T06:57:53;17.50;;;11.57;;
19897;SDS011;10111;50.814;4.572;2023-02-13T07:00:19;16.33;;;10.63;;
19897;SDS011;10111;50.814;4.572;2023-02-13T07:02:45;18.37;;;12.43;;
19897;SDS011;10111;50.814;4.572;2023-02-13T07:05:12;21.37;;;12.30;;
19897;SDS011;10111;50.814;4.572;2023-02-13T07:07:39;15.10;;;10.70;;
19897;SDS011;10111;50.814;4.572;2023-02-13T07:10:06;19.73;;;12.57;;
19897;SDS011;10111;50.814;4.572;2023-02-13T07:12:35;15.30;;;10.30;;
19897;SDS011;10111;50.814;4.572;2023-02-13T07:15:03;16.30;;;10.70;;
19897;SDS011;10111;50.814;4.572;2023-02-13T07:17:30;15.23;;;10.97;;
19897;SDS011;10111;50.814;4.572;2023-02-13T07:19:56;15.70;;;10.97;;
19897;SDS011;10111;50.814;4.572;2023-02-13T07:22:22;18.40;;;9.70;;
19897;SDS011;10111;50.814;4.572;2023-02-13T07:24:47;17.30;;;11.07;;
19897;SDS011;10111;50.814;4.572;2023-02-13T07:27:13;17.13;;;11.00;;
19897;SDS011;10111;50.814;4.572;2023-02-13T07:29:39;16.43;;;11.50;;
19897;SDS011;10111;50.814;4.572;2023-02-13T07:32:04;14.37;;;9.83;;
19897;SDS011;10111;50.814;4.572;2023-02-13T07:34:31;18.30;;;11.13;;
19897;SDS011;10111;50.814;4.572;2023-02-13T07:36:57;16.17;;;11.07;;
19897;SDS011;10111;50.814;4.572;2023-02-13T07:39:23;14.97;;;10.93;;
19897;SDS011;10111;50.814;4.572;2023-02-13T07:41:49;15.87;;;10.57;;
19897;SDS011;10111;50.814;4.572;2023-02-13T07:44:15;20.10;;;12.30;;
19897;SDS011;10111;50.814;4.572;2023-02-13T07:46:40;18.07;;;12.13;;
19897;SDS011;10111;50.814;4.572;2023-02-13T07:49:06;20.93;;;13.43;;
19897;SDS011;10111;50.814;4.572;2023-02-13T07:51:32;21.07;;;13.97;;
19897;SDS011;10111;50.814;4.572;2023-02-13T07:53:57;22.03;;;12.57;;
19897;SDS011;10111;50.814;4.572;2023-02-13T07:56:23;20.63;;;13.57;;
19897;SDS011;10111;50.814;4.572;2023-02-13T07:58:48;23.13;;;14.23;;
19897;SDS011;10111;50.814;4.572;2023-02-13T08:01:15;21.30;;;13.73;;
19897;SDS011;10111;50.814;4.572;2023-02-13T08:03:41;20.80;;;13.10;;
19897;SDS011;10111;50.814;4.572;2023-02-13T08:06:07;19.90;;;13.77;;
19897;SDS011;10111;50.814;4.572;2023-02-13T08:08:33;21.77;;;13.33;;
19897;SDS011;10111;50.814;4.572;2023-02-13T08:11:21;21.90;;;13.60;;
19897;SDS011;10111;50.814;4.572;2023-02-13T08:14:08;22.67;;;12.67;;
19897;SDS011;10111;50.814;4.572;2023-02-13T08:16:34;20.40;;;13.50;;
19897;SDS011;10111;50.814;4.572;2023-02-13T08:19:00;23.67;;;13.93;;
19897;SDS011;10111;50.814;4.572;2023-02-13T08:21:25;24.77;;;14.97;;
19897;SDS011;10111;50.814;4.572;2023-02-13T08:23:51;17.57;;;12.97;;
19897;SDS011;10111;50.814;4.572;2023-02-13T08:26:16;21.70;;;14.17;;
19897;SDS011;10111;50.814;4.572;2023-02-13T08:28:42;24.87;;;14.90;;
19897;SDS011;10111;50.814;4.572;2023-02-13T08:31:09;21.73;;;13.20;;
19897;SDS011;10111;50.814;4.572;2023-02-13T08:33:35;22.47;;;14.47;;
19897;SDS011;10111;50.814;4.572;2023-02-13T08:36:04;23.00;;;14.00;;
19897;SDS011;10111;50.814;4.572;2023-02-13T08:38:30;21.97;;;14.47;;
19897;SDS011;10111;50.814;4.572;2023-02-13T08:40:56;22.20;;;15.33;;
19897;SDS011;10111;50.814;4.572;2023-02-13T08:43:22;25.10;;;14.57;;
19897;SDS011;10111;50.814;4.572;2023-02-13T08:45:48;23.43;;;13.97;;
19897;SDS011;10111;50.814;4.572;2023-02-13T08:48:13;21.53;;;14.47;;
19897;SDS011;10111;50.814;4.572;2023-02-13T08:50:39;23.03;;;14.83;;
19897;SDS011;10111;50.814;4.572;2023-02-13T08:53:05;25.63;;;16.00;;
19897;SDS011;10111;50.814;4.572;2023-02-13T08:55:31;25.53;;;15.77;;
19897;SDS011;10111;50.814;4.572;2023-02-13T08:58:01;29.10;;;15.20;;
19897;SDS011;10111;50.814;4.572;2023-02-13T09:00:27;25.20;;;14.57;;
19897;SDS011;10111;50.814;4.572;2023-02-13T09:02:53;24.57;;;15.50;;
19897;SDS011;10111;50.814;4.572;2023-02-13T09:05:19;27.63;;;16.90;;
19897;SDS011;10111;50.814;4.572;2023-02-13T09:07:45;29.10;;;15.73;;
19897;SDS011;10111;50.814;4.572;2023-02-13T09:10:10;26.10;;;15.20;;
19897;SDS011;10111;50.814;4.572;2023-02-13T09:12:36;31.67;;;17.57;;
19897;SDS011;10111;50.814;4.572;2023-02-13T09:15:03;29.20;;;16.63;;
19897;SDS011;10111;50.814;4.572;2023-02-13T09:17:29;32.30;;;17.23;;
19897;SDS011;10111;50.814;4.572;2023-02-13T09:19:55;29.43;;;16.33;;
19897;SDS011;10111;50.814;4.572;2023-02-13T09:22:20;31.20;;;17.70;;
19897;SDS011;10111;50.814;4.572;2023-02-13T09:24:46;27.97;;;16.30;;
19897;SDS011;10111;50.814;4.572;2023-02-13T09:27:12;36.63;;;17.13;;
19897;SDS011;10111;50.814;4.572;2023-02-13T09:29:37;31.83;;;17.90;;
19897;SDS011;10111;50.814;4.572;2023-02-13T09:32:03;32.50;;;17.63;;
19897;SDS011;10111;50.814;4.572;2023-02-13T09:34:29;30.70;;;16.10;;
19897;SDS011;10111;50.814;4.572;2023-02-13T09:36:55;29.10;;;17.67;;
19897;SDS011;10111;50.814;4.572;2023-02-13T09:39:21;31.47;;;17.30;;
19897;SDS011;10111;50.814;4.572;2023-02-13T09:41:47;33.87;;;18.13;;
19897;SDS011;10111;50.814;4.572;2023-02-13T09:44:16;31.13;;;16.97;;
19897;SDS011;10111;50.814;4.572;2023-02-13T09:52:41;28.30;;;15.50;;
19897;SDS011;10111;50.814;4.572;2023-02-13T09:55:16;29.20;;;14.73;;
19897;SDS011;10111;50.814;4.572;2023-02-13T10:00:49;31.30;;;15.93;;
19897;SDS011;10111;50.814;4.572;2023-02-13T10:03:28;24.10;;;15.67;;
19897;SDS011;10111;50.814;4.572;2023-02-13T10:16:39;30.93;;;15.43;;
19897;SDS011;10111;50.814;4.572;2023-02-13T10:20:09;26.87;;;14.70;;
19897;SDS011;10111;50.814;4.572;2023-02-13T10:22:14;26.87;;;13.73;;
19897;SDS011;10111;50.814;4.572;2023-02-13T10:35:39;17.67;;;11.70;;
19897;SDS011;10111;50.814;4.572;2023-02-13T10:38:12;19.47;;;12.90;;
19897;SDS011;10111;50.814;4.572;2023-02-13T10:40:42;18.23;;;12.70;;
19897;SDS011;10111;50.814;4.572;2023-02-13T10:43:38;20.33;;;12.13;;
19897;SDS011;10111;50.814;4.572;2023-02-13T10:46:29;19.10;;;11.47;;
19897;SDS011;10111;50.814;4.572;2023-02-13T10:54:56;20.10;;;12.03;;
19897;SDS011;10111;50.814;4.572;2023-02-13T10:59:59;22.63;;;12.87;;
19897;SDS011;10111;50.814;4.572;2023-02-13T11:02:39;16.47;;;10.20;;
19897;SDS011;10111;50.814;4.572;2023-02-13T11:07:45;18.17;;;10.67;;
19897;SDS011;10111;50.814;4.572;2023-02-13T11:10:16;19.07;;;11.53;;
19897;SDS011;10111;50.814;4.572;2023-02-13T11:12:46;16.13;;;10.30;;
19897;SDS011;10111;50.814;4.572;2023-02-13T11:17:55;19.70;;;10.53;;
19897;SDS011;10111;50.814;4.572;2023-02-13T11:20:26;19.67;;;11.30;;
19897;SDS011;10111;50.814;4.572;2023-02-13T11:26:21;16.33;;;10.23;;
19897;SDS011;10111;50.814;4.572;2023-02-13T11:28:53;21.10;;;11.57;;
19897;SDS011;10111;50.814;4.572;2023-02-13T11:31:26;16.43;;;10.47;;
19897;SDS011;10111;50.814;4.572;2023-02-13T11:33:57;17.43;;;11.97;;
19897;SDS011;10111;50.814;4.572;2023-02-13T11:36:25;17.53;;;10.97;;
19897;SDS011;10111;50.814;4.572;2023-02-13T11:39:05;15.53;;;10.33;;
19897;SDS011;10111;50.814;4.572;2023-02-13T11:41:42;17.67;;;9.87;;
19897;SDS011;10111;50.814;4.572;2023-02-13T11:46:55;16.30;;;10.43;;
19897;SDS011;10111;50.814;4.572;2023-02-13T11:49:23;17.33;;;10.83;;
19897;SDS011;10111;50.814;4.572;2023-02-13T11:51:57;16.57;;;10.57;;
19897;SDS011;10111;50.814;4.572;2023-02-13T11:54:29;14.43;;;10.07;;
19897;SDS011;10111;50.814;4.572;2023-02-13T11:57:27;16.63;;;9.53;;
19897;SDS011;10111;50.814;4.572;2023-02-13T11:59:59;15.50;;;10.73;;
19897;SDS011;10111;50.814;4.572;2023-02-13T12:02:27;19.17;;;11.17;;
19897;SDS011;10111;50.814;4.572;2023-02-13T12:04:55;17.43;;;10.80;;
19897;SDS011;10111;50.814;4.572;2023-02-13T12:07:45;18.50;;;10.13;;
19897;SDS011;10111;50.814;4.572;2023-02-13T12:12:45;15.53;;;9.47;;
19897;SDS011;10111;50.814;4.572;2023-02-13T12:15:23;14.80;;;9.33;;
19897;SDS011;10111;50.814;4.572;2023-02-13T12:18:13;16.90;;;10.17;;
19897;SDS011;10111;50.814;4.572;2023-02-13T12:21:27;14.83;;;9.30;;
19897;SDS011;10111;50.814;4.572;2023-02-13T12:27:05;13.57;;;9.00;;
19897;SDS011;10111;50.814;4.572;2023-02-13T12:32:19;15.47;;;9.07;;
19897;SDS011;10111;50.814;4.572;2023-02-13T12:37:55;12.07;;;8.60;;
19897;SDS011;10111;50.814;4.572;2023-02-13T12:40:34;21.10;;;9.47;;
19897;SDS011;10111;50.814;4.572;2023-02-13T12:46:04;15.37;;;9.10;;
19897;SDS011;10111;50.814;4.572;2023-02-13T12:48:51;12.83;;;8.87;;
19897;SDS011;10111;50.814;4.572;2023-02-13T12:52:05;14.60;;;8.40;;
19897;SDS011;10111;50.814;4.572;2023-02-13T13:10:53;12.67;;;7.97;;
19897;SDS011;10111;50.814;4.572;2023-02-13T13:19:50;12.13;;;7.60;;
19897;SDS011;10111;50.814;4.572;2023-02-13T13:30:31;10.50;;;6.30;;
19897;SDS011;10111;50.814;4.572;2023-02-13T13:33:02;10.33;;;6.83;;
19897;SDS011;10111;50.814;4.572;2023-02-13T13:35:38;13.57;;;7.53;;
19897;SDS011;10111;50.814;4.572;2023-02-13T13:38:18;12.57;;;7.40;;
19897;SDS011;10111;50.814;4.572;2023-02-13T13:49:58;9.60;;;7.20;;
19897;SDS011;10111;50.814;4.572;2023-02-13T13:55:57;10.43;;;6.33;;
19897;SDS011;10111;50.814;4.572;2023-02-13T14:14:48;9.60;;;5.83;;
19897;SDS011;10111;50.814;4.572;2023-02-13T14:17:16;10.17;;;6.20;;
19897;SDS011;10111;50.814;4.572;2023-02-13T14:29:03;10.30;;;6.20;;
19897;SDS011;10111;50.814;4.572;2023-02-13T14:31:35;9.37;;;5.90;;
19897;SDS011;10111;50.814;4.572;2023-02-13T14:36:42;9.70;;;6.10;;
19897;SDS011;10111;50.814;4.572;2023-02-13T14:44:36;9.30;;;6.10;;
19897;SDS011;10111;50.814;4.572;2023-02-13T14:47:13;7.60;;;5.77;;
19897;SDS011;10111;50.814;4.572;2023-02-13T14:49:46;14.77;;;10.67;;
19897;SDS011;10111;50.814;4.572;2023-02-13T14:52:57;9.17;;;6.23;;
19897;SDS011;10111;50.814;4.572;2023-02-13T14:55:10;7.43;;;5.47;;
19897;SDS011;10111;50.814;4.572;2023-02-13T14:57:48;10.93;;;6.33;;
19897;SDS011;10111;50.814;4.572;2023-02-13T15:03:18;10.00;;;6.53;;
19897;SDS011;10111;50.814;4.572;2023-02-13T15:05:52;8.50;;;5.80;;
19897;SDS011;10111;50.814;4.572;2023-02-13T15:08:21;11.37;;;6.57;;
19897;SDS011;10111;50.814;4.572;2023-02-13T15:10:54;8.97;;;6.37;;
19897;SDS011;10111;50.814;4.572;2023-02-13T15:13:22;9.37;;;5.57;;
19897;SDS011;10111;50.814;4.572;2023-02-13T15:16:01;10.17;;;6.43;;
19897;SDS011;10111;50.814;4.572;2023-02-13T15:18:44;13.93;;;6.97;;
19897;SDS011;10111;50.814;4.572;2023-02-13T15:21:14;9.73;;;6.20;;
19897;SDS011;10111;50.814;4.572;2023-02-13T15:23:42;11.40;;;6.40;;
19897;SDS011;10111;50.814;4.572;2023-02-13T15:26:15;15.03;;;5.77;;
19897;SDS011;10111;50.814;4.572;2023-02-13T15:28:58;8.70;;;6.03;;
19897;SDS011;10111;50.814;4.572;2023-02-13T15:31:31;7.67;;;5.67;;
19897;SDS011;10111;50.814;4.572;2023-02-13T15:33:58;8.47;;;5.97;;
19897;SDS011;10111;50.814;4.572;2023-02-13T15:36:25;12.43;;;5.90;;
19897;SDS011;10111;50.814;4.572;2023-02-13T15:38:59;8.10;;;5.77;;
19897;SDS011;10111;50.814;4.572;2023-02-13T15:41:32;11.10;;;6.53;;
19897;SDS011;10111;50.814;4.572;2023-02-13T15:44:01;9.20;;;5.37;;
19897;SDS011;10111;50.814;4.572;2023-02-13T15:46:29;9.13;;;6.07;;
19897;SDS011;10111;50.814;4.572;2023-02-13T15:48:57;9.70;;;6.00;;
19897;SDS011;10111;50.814;4.572;2023-02-13T15:51:31;11.40;;;6.23;;
19897;SDS011;10111;50.814;4.572;2023-02-13T15:54:02;11.27;;;6.40;;
19897;SDS011;10111;50.814;4.572;2023-02-13T15:56:30;11.23;;;6.07;;
19897;SDS011;10111;50.814;4.572;2023-02-13T15:58:57;9.20;;;6.10;;
19897;SDS011;10111;50.814;4.572;2023-02-13T16:01:24;10.43;;;6.80;;
19897;SDS011;10111;50.814;4.572;2023-02-13T16:03:53;8.07;;;6.50;;
19897;SDS011;10111;50.814;4.572;2023-02-13T16:06:26;6.53;;;5.67;;
19897;SDS011;10111;50.814;4.572;2023-02-13T16:08:53;9.77;;;6.67;;
19897;SDS011;10111;50.814;4.572;2023-02-13T16:17:15;9.53;;;6.40;;
19897;SDS011;10111;50.814;4.572;2023-02-13T16:20:07;9.33;;;5.37;;
19897;SDS011;10111;50.814;4.572;2023-02-13T16:27:38;9.10;;;5.87;;
19897;SDS011;10111;50.814;4.572;2023-02-13T16:30:15;9.73;;;5.87;;
19897;SDS011;10111;50.814;4.572;2023-02-13T16:32:47;11.67;;;6.63;;
19897;SDS011;10111;50.814;4.572;2023-02-13T16:35:30;8.57;;;5.83;;
19897;SDS011;10111;50.814;4.572;2023-02-13T16:38:02;9.03;;;6.13;;
19897;SDS011;10111;50.814;4.572;2023-02-13T16:40:41;9.47;;;5.47;;
19897;SDS011;10111;50.814;4.572;2023-02-13T17:04:49;5.80;;;4.67;;
19897;SDS011;10111;50.814;4.572;2023-02-13T17:07:20;10.17;;;6.50;;
19897;SDS011;10111;50.814;4.572;2023-02-13T17:09:51;6.77;;;5.07;;
19897;SDS011;10111;50.814;4.572;2023-02-13T17:12:22;7.87;;;5.03;;
19897;SDS011;10111;50.814;4.572;2023-02-13T17:14:48;6.63;;;4.93;;
19897;SDS011;10111;50.814;4.572;2023-02-13T17:17:18;10.60;;;6.30;;
19897;SDS011;10111;50.814;4.572;2023-02-13T17:19:46;7.80;;;5.77;;
19897;SDS011;10111;50.814;4.572;2023-02-13T17:22:34;8.27;;;5.17;;
19897;SDS011;10111;50.814;4.572;2023-02-13T17:25:26;8.70;;;5.43;;
19897;SDS011;10111;50.814;4.572;2023-02-13T17:27:53;6.97;;;6.13;;
19897;SDS011;10111;50.814;4.572;2023-02-13T17:30:22;8.77;;;5.57;;
19897;SDS011;10111;50.814;4.572;2023-02-13T17:32:49;8.57;;;5.87;;
19897;SDS011;10111;50.814;4.572;2023-02-13T17:35:20;10.33;;;5.43;;
19897;SDS011;10111;50.814;4.572;2023-02-13T17:37:46;10.27;;;5.50;;
19897;SDS011;10111;50.814;4.572;2023-02-13T17:40:19;7.83;;;4.93;;
19897;SDS011;10111;50.814;4.572;2023-02-13T17:42:49;7.10;;;4.93;;
19897;SDS011;10111;50.814;4.572;2023-02-13T17:45:18;8.47;;;4.97;;
19897;SDS011;10111;50.814;4.572;2023-02-13T17:47:45;9.00;;;5.83;;
19897;SDS011;10111;50.814;4.572;2023-02-13T17:50:11;9.03;;;5.57;;
19897;SDS011;10111;50.814;4.572;2023-02-13T17:52:38;9.60;;;5.70;;
19897;SDS011;10111;50.814;4.572;2023-02-13T17:55:06;9.23;;;6.13;;
19897;SDS011;10111;50.814;4.572;2023-02-13T17:57:38;8.93;;;6.03;;
19897;SDS011;10111;50.814;4.572;2023-02-13T18:00:04;11.77;;;6.07;;
19897;SDS011;10111;50.814;4.572;2023-02-13T18:02:30;8.23;;;5.57;;
19897;SDS011;10111;50.814;4.572;2023-02-13T18:04:57;10.33;;;5.83;;
19897;SDS011;10111;50.814;4.572;2023-02-13T18:07:23;9.20;;;6.13;;
19897;SDS011;10111;50.814;4.572;2023-02-13T18:09:49;8.03;;;5.87;;
19897;SDS011;10111;50.814;4.572;2023-02-13T18:12:16;10.27;;;6.13;;
19897;SDS011;10111;50.814;4.572;2023-02-13T18:14:45;10.70;;;6.77;;
19897;SDS011;10111;50.814;4.572;2023-02-13T18:17:11;9.90;;;6.53;;
19897;SDS011;10111;50.814;4.572;2023-02-13T18:19:37;8.77;;;6.33;;
19897;SDS011;10111;50.814;4.572;2023-02-13T18:22:04;9.03;;;6.30;;
19897;SDS011;10111;50.814;4.572;2023-02-13T18:24:32;10.67;;;6.27;;
19897;SDS011;10111;50.814;4.572;2023-02-13T18:26:59;9.70;;;5.70;;